sensor_id;sensor_type;location;lat;lon;timestamp;temperature;humidity
20081;DHT22;10200;49.232;9.222;2022-08-07T00:02:05;20.10;47.10
20081;DHT22;10200;49.232;9.222;2022-08-07T00:04:30;20.10;47.50
20081;DHT22;10200;49.232;9.222;2022-08-07T00:06:56;20.10;47.50
20081;DHT22;10200;49.232;9.222;2022-08-07T00:09:21;20.10;47.40
20081;DHT22;10200;49.232;9.222;2022-08-07T00:11:47;20.10;48.10
20081;DHT22;10200;49.232;9.222;2022-08-07T00:14:13;20.00;47.50
20081;DHT22;10200;49.232;9.222;2022-08-07T00:16:39;20.00;47.90
20081;DHT22;10200;49.232;9.222;2022-08-07T00:19:04;19.90;47.90
20081;DHT22;10200;49.232;9.222;2022-08-07T00:21:30;19.90;48.00
20081;DHT22;10200;49.232;9.222;2022-08-07T00:23:56;20.00;48.10
20081;DHT22;10200;49.232;9.222;2022-08-07T00:26:21;20.00;48.00
20081;DHT22;10200;49.232;9.222;2022-08-07T00:28:47;19.90;47.90
20081;DHT22;10200;49.232;9.222;2022-08-07T00:31:13;19.90;48.10
20081;DHT22;10200;49.232;9.222;2022-08-07T00:33:39;19.90;48.20
20081;DHT22;10200;49.232;9.222;2022-08-07T00:36:06;19.80;48.20
20081;DHT22;10200;49.232;9.222;2022-08-07T00:38:32;19.80;48.30
20081;DHT22;10200;49.232;9.222;2022-08-07T00:41:01;19.80;48.50
20081;DHT22;10200;49.232;9.222;2022-08-07T00:43:27;19.70;48.50
20081;DHT22;10200;49.232;9.222;2022-08-07T00:45:52;19.80;48.80
20081;DHT22;10200;49.232;9.222;2022-08-07T00:48:18;19.70;48.90
20081;DHT22;10200;49.232;9.222;2022-08-07T00:50:44;19.80;48.90
20081;DHT22;10200;49.232;9.222;2022-08-07T00:53:09;19.80;49.10
20081;DHT22;10200;49.232;9.222;2022-08-07T00:55:35;19.80;49.00
20081;DHT22;10200;49.232;9.222;2022-08-07T00:58:02;19.80;49.20
20081;DHT22;10200;49.232;9.222;2022-08-07T01:00:27;19.70;49.20
20081;DHT22;10200;49.232;9.222;2022-08-07T01:02:53;19.70;49.40
20081;DHT22;10200;49.232;9.222;2022-08-07T01:05:19;19.70;49.50
20081;DHT22;10200;49.232;9.222;2022-08-07T01:07:45;19.70;49.50
20081;DHT22;10200;49.232;9.222;2022-08-07T01:10:11;19.60;49.50
20081;DHT22;10200;49.232;9.222;2022-08-07T01:12:39;19.60;50.00
20081;DHT22;10200;49.232;9.222;2022-08-07T01:15:06;19.60;49.80
20081;DHT22;10200;49.232;9.222;2022-08-07T01:17:32;19.50;50.10
20081;DHT22;10200;49.232;9.222;2022-08-07T01:20:10;19.50;50.30
20081;DHT22;10200;49.232;9.222;2022-08-07T01:22:37;19.50;50.30
20081;DHT22;10200;49.232;9.222;2022-08-07T01:25:04;19.50;50.60
20081;DHT22;10200;49.232;9.222;2022-08-07T01:27:30;19.50;50.80
20081;DHT22;10200;49.232;9.222;2022-08-07T01:29:56;19.50;50.80
20081;DHT22;10200;49.232;9.222;2022-08-07T01:32:22;19.50;50.60
20081;DHT22;10200;49.232;9.222;2022-08-07T01:34:48;19.40;50.80
20081;DHT22;10200;49.232;9.222;2022-08-07T01:37:15;19.40;50.70
20081;DHT22;10200;49.232;9.222;2022-08-07T01:39:46;19.40;50.80
20081;DHT22;10200;49.232;9.222;2022-08-07T01:42:13;19.40;51.00
20081;DHT22;10200;49.232;9.222;2022-08-07T01:44:39;19.30;50.70
20081;DHT22;10200;49.232;9.222;2022-08-07T01:47:06;19.20;51.10
20081;DHT22;10200;49.232;9.222;2022-08-07T01:49:32;19.20;51.30
20081;DHT22;10200;49.232;9.222;2022-08-07T01:51:59;19.20;51.50
20081;DHT22;10200;49.232;9.222;2022-08-07T01:54:27;19.20;51.40
20081;DHT22;10200;49.232;9.222;2022-08-07T01:57:03;19.20;51.60
20081;DHT22;10200;49.232;9.222;2022-08-07T01:59:39;19.20;51.70
20081;DHT22;10200;49.232;9.222;2022-08-07T02:02:09;19.20;51.60
20081;DHT22;10200;49.232;9.222;2022-08-07T02:04:58;19.10;51.70
20081;DHT22;10200;49.232;9.222;2022-08-07T02:07:29;19.10;51.70
20081;DHT22;10200;49.232;9.222;2022-08-07T02:09:57;19.00;51.90
20081;DHT22;10200;49.232;9.222;2022-08-07T02:12:24;19.00;52.00
20081;DHT22;10200;49.232;9.222;2022-08-07T02:14:55;19.00;52.20
20081;DHT22;10200;49.232;9.222;2022-08-07T02:17:22;19.00;52.20
20081;DHT22;10200;49.232;9.222;2022-08-07T02:19:49;18.90;52.40
20081;DHT22;10200;49.232;9.222;2022-08-07T02:22:18;18.90;52.30
20081;DHT22;10200;49.232;9.222;2022-08-07T02:24:46;18.90;52.40
20081;DHT22;10200;49.232;9.222;2022-08-07T02:27:13;18.90;52.80
20081;DHT22;10200;49.232;9.222;2022-08-07T02:29:40;18.90;52.60
20081;DHT22;10200;49.232;9.222;2022-08-07T02:32:08;18.80;52.70
20081;DHT22;10200;49.232;9.222;2022-08-07T02:34:36;18.70;52.80
20081;DHT22;10200;49.232;9.222;2022-08-07T02:37:02;18.70;53.40
20081;DHT22;10200;49.232;9.222;2022-08-07T02:39:31;18.70;53.30
20081;DHT22;10200;49.232;9.222;2022-08-07T02:41:59;18.70;52.90
20081;DHT22;10200;49.232;9.222;2022-08-07T02:44:26;18.60;53.30
20081;DHT22;10200;49.232;9.222;2022-08-07T02:46:54;18.60;53.30
20081;DHT22;10200;49.232;9.222;2022-08-07T02:49:20;18.60;53.40
20081;DHT22;10200;49.232;9.222;2022-08-07T02:51:47;18.60;53.30
20081;DHT22;10200;49.232;9.222;2022-08-07T02:54:14;18.60;53.60
20081;DHT22;10200;49.232;9.222;2022-08-07T02:56:43;18.50;53.40
20081;DHT22;10200;49.232;9.222;2022-08-07T02:59:15;18.50;53.70
20081;DHT22;10200;49.232;9.222;2022-08-07T03:01:42;18.50;53.70
20081;DHT22;10200;49.232;9.222;2022-08-07T03:04:11;18.50;53.70
20081;DHT22;10200;49.232;9.222;2022-08-07T03:06:38;18.50;53.70
20081;DHT22;10200;49.232;9.222;2022-08-07T03:09:05;18.50;53.70
20081;DHT22;10200;49.232;9.222;2022-08-07T03:11:33;18.50;53.70
20081;DHT22;10200;49.232;9.222;2022-08-07T03:14:02;18.40;53.40
20081;DHT22;10200;49.232;9.222;2022-08-07T03:16:29;18.30;53.40
20081;DHT22;10200;49.232;9.222;2022-08-07T03:18:56;18.20;53.60
20081;DHT22;10200;49.232;9.222;2022-08-07T03:21:22;18.10;54.00
20081;DHT22;10200;49.232;9.222;2022-08-07T03:23:49;18.10;54.00
20081;DHT22;10200;49.232;9.222;2022-08-07T03:26:17;18.00;54.10
20081;DHT22;10200;49.232;9.222;2022-08-07T03:28:45;18.10;54.00
20081;DHT22;10200;49.232;9.222;2022-08-07T03:31:12;18.00;54.20
20081;DHT22;10200;49.232;9.222;2022-08-07T03:33:46;17.90;54.20
20081;DHT22;10200;49.232;9.222;2022-08-07T03:36:13;17.80;54.50
20081;DHT22;10200;49.232;9.222;2022-08-07T03:38:40;17.80;54.60
20081;DHT22;10200;49.232;9.222;2022-08-07T03:41:08;17.80;54.70
20081;DHT22;10200;49.232;9.222;2022-08-07T03:43:35;17.70;55.10
20081;DHT22;10200;49.232;9.222;2022-08-07T03:46:02;17.70;54.70
20081;DHT22;10200;49.232;9.222;2022-08-07T03:48:31;17.70;55.10
20081;DHT22;10200;49.232;9.222;2022-08-07T03:50:58;17.70;55.40
20081;DHT22;10200;49.232;9.222;2022-08-07T03:53:24;17.70;55.20
20081;DHT22;10200;49.232;9.222;2022-08-07T03:55:50;17.60;54.90
20081;DHT22;10200;49.232;9.222;2022-08-07T03:58:18;17.60;55.30
20081;DHT22;10200;49.232;9.222;2022-08-07T04:00:46;17.60;55.20
20081;DHT22;10200;49.232;9.222;2022-08-07T04:03:12;17.60;55.10
20081;DHT22;10200;49.232;9.222;2022-08-07T04:05:38;17.50;55.20
20081;DHT22;10200;49.232;9.222;2022-08-07T04:08:04;17.50;55.40
20081;DHT22;10200;49.232;9.222;2022-08-07T04:10:30;17.50;55.50
20081;DHT22;10200;49.232;9.222;2022-08-07T04:12:56;17.50;55.50
20081;DHT22;10200;49.232;9.222;2022-08-07T04:15:22;17.50;56.00
20081;DHT22;10200;49.232;9.222;2022-08-07T04:17:48;17.50;55.50
20081;DHT22;10200;49.232;9.222;2022-08-07T04:20:14;17.50;55.30
20081;DHT22;10200;49.232;9.222;2022-08-07T04:22:40;17.50;55.40
20081;DHT22;10200;49.232;9.222;2022-08-07T04:25:07;17.40;55.30
20081;DHT22;10200;49.232;9.222;2022-08-07T04:27:33;17.40;55.60
20081;DHT22;10200;49.232;9.222;2022-08-07T04:29:59;17.40;56.00
20081;DHT22;10200;49.232;9.222;2022-08-07T04:32:25;17.40;55.80
20081;DHT22;10200;49.232;9.222;2022-08-07T04:34:52;17.40;55.90
20081;DHT22;10200;49.232;9.222;2022-08-07T04:37:18;17.40;55.90
20081;DHT22;10200;49.232;9.222;2022-08-07T04:39:44;17.40;56.10
20081;DHT22;10200;49.232;9.222;2022-08-07T04:42:11;17.40;56.00
20081;DHT22;10200;49.232;9.222;2022-08-07T04:44:37;17.50;56.10
20081;DHT22;10200;49.232;9.222;2022-08-07T04:47:20;17.40;56.00
20081;DHT22;10200;49.232;9.222;2022-08-07T04:52:58;17.50;56.20
20081;DHT22;10200;49.232;9.222;2022-08-07T04:55:42;17.40;55.90
20081;DHT22;10200;49.232;9.222;2022-08-07T05:01:00;17.60;56.20
20081;DHT22;10200;49.232;9.222;2022-08-07T05:03:40;17.60;55.90
20081;DHT22;10200;49.232;9.222;2022-08-07T05:09:21;17.80;55.90
20081;DHT22;10200;49.232;9.222;2022-08-07T05:11:51;17.90;55.80
20081;DHT22;10200;49.232;9.222;2022-08-07T05:16:48;18.00;55.50
20081;DHT22;10200;49.232;9.222;2022-08-07T05:19:20;18.10;55.30
20081;DHT22;10200;49.232;9.222;2022-08-07T05:21:50;18.50;55.30
20081;DHT22;10200;49.232;9.222;2022-08-07T05:24:19;19.40;53.90
20081;DHT22;10200;49.232;9.222;2022-08-07T05:26:47;19.90;51.90
20081;DHT22;10200;49.232;9.222;2022-08-07T05:29:15;20.30;51.20
20081;DHT22;10200;49.232;9.222;2022-08-07T05:31:43;20.90;51.00
20081;DHT22;10200;49.232;9.222;2022-08-07T05:34:13;21.40;49.10
20081;DHT22;10200;49.232;9.222;2022-08-07T05:36:43;21.60;48.10
20081;DHT22;10200;49.232;9.222;2022-08-07T05:39:11;21.70;47.60
20081;DHT22;10200;49.232;9.222;2022-08-07T05:41:40;21.60;47.60
20081;DHT22;10200;49.232;9.222;2022-08-07T05:44:08;21.60;47.60
20081;DHT22;10200;49.232;9.222;2022-08-07T05:46:36;21.70;47.60
20081;DHT22;10200;49.232;9.222;2022-08-07T05:49:05;21.80;47.00
20081;DHT22;10200;49.232;9.222;2022-08-07T05:51:31;21.80;48.00
20081;DHT22;10200;49.232;9.222;2022-08-07T05:53:57;22.00;47.40
20081;DHT22;10200;49.232;9.222;2022-08-07T05:56:23;22.20;47.30
20081;DHT22;10200;49.232;9.222;2022-08-07T05:58:49;22.70;46.80
20081;DHT22;10200;49.232;9.222;2022-08-07T06:01:16;23.10;45.80
20081;DHT22;10200;49.232;9.222;2022-08-07T06:03:52;23.40;45.20
20081;DHT22;10200;49.232;9.222;2022-08-07T06:06:19;23.90;44.50
20081;DHT22;10200;49.232;9.222;2022-08-07T06:08:45;24.50;43.60
20081;DHT22;10200;49.232;9.222;2022-08-07T06:11:12;25.10;42.50
20081;DHT22;10200;49.232;9.222;2022-08-07T06:13:38;25.80;41.70
20081;DHT22;10200;49.232;9.222;2022-08-07T06:16:06;26.50;40.30
20081;DHT22;10200;49.232;9.222;2022-08-07T06:18:32;27.20;39.70
20081;DHT22;10200;49.232;9.222;2022-08-07T06:21:03;27.90;37.70
20081;DHT22;10200;49.232;9.222;2022-08-07T06:23:30;28.00;36.50
20081;DHT22;10200;49.232;9.222;2022-08-07T06:25:56;28.20;36.70
20081;DHT22;10200;49.232;9.222;2022-08-07T06:28:22;28.40;35.80
20081;DHT22;10200;49.232;9.222;2022-08-07T06:30:49;28.60;35.20
20081;DHT22;10200;49.232;9.222;2022-08-07T06:33:14;28.70;35.90
20081;DHT22;10200;49.232;9.222;2022-08-07T06:35:40;28.70;35.40
20081;DHT22;10200;49.232;9.222;2022-08-07T06:38:06;28.40;36.10
20081;DHT22;10200;49.232;9.222;2022-08-07T06:40:46;28.60;36.20
20081;DHT22;10200;49.232;9.222;2022-08-07T06:43:12;28.70;35.50
20081;DHT22;10200;49.232;9.222;2022-08-07T06:45:40;28.70;36.30
20081;DHT22;10200;49.232;9.222;2022-08-07T06:48:06;28.80;36.10
20081;DHT22;10200;49.232;9.222;2022-08-07T06:50:33;28.70;35.70
20081;DHT22;10200;49.232;9.222;2022-08-07T06:53:02;28.90;36.50
20081;DHT22;10200;49.232;9.222;2022-08-07T06:55:30;29.20;36.20
20081;DHT22;10200;49.232;9.222;2022-08-07T06:57:58;29.30;36.00
20081;DHT22;10200;49.232;9.222;2022-08-07T07:00:27;29.40;35.20
20081;DHT22;10200;49.232;9.222;2022-08-07T07:02:55;29.40;35.30
20081;DHT22;10200;49.232;9.222;2022-08-07T07:05:21;29.50;35.40
20081;DHT22;10200;49.232;9.222;2022-08-07T07:07:47;29.50;35.90
20081;DHT22;10200;49.232;9.222;2022-08-07T07:10:13;29.60;35.80
20081;DHT22;10200;49.232;9.222;2022-08-07T07:12:45;29.60;35.80
20081;DHT22;10200;49.232;9.222;2022-08-07T07:15:20;29.50;35.40
20081;DHT22;10200;49.232;9.222;2022-08-07T07:18:30;29.20;36.40
20081;DHT22;10200;49.232;9.222;2022-08-07T07:21:01;29.30;36.90
20081;DHT22;10200;49.232;9.222;2022-08-07T07:23:28;29.40;36.50
20081;DHT22;10200;49.232;9.222;2022-08-07T07:26:00;29.40;37.60
20081;DHT22;10200;49.232;9.222;2022-08-07T07:28:34;29.70;36.30
20081;DHT22;10200;49.232;9.222;2022-08-07T07:31:09;29.40;36.60
20081;DHT22;10200;49.232;9.222;2022-08-07T07:33:37;29.50;37.00
20081;DHT22;10200;49.232;9.222;2022-08-07T07:36:05;29.50;37.30
20081;DHT22;10200;49.232;9.222;2022-08-07T07:38:32;29.90;38.30
20081;DHT22;10200;49.232;9.222;2022-08-07T07:41:04;29.90;36.80
20081;DHT22;10200;49.232;9.222;2022-08-07T07:43:31;30.10;36.80
20081;DHT22;10200;49.232;9.222;2022-08-07T07:45:59;30.20;36.60
20081;DHT22;10200;49.232;9.222;2022-08-07T07:48:26;30.10;36.40
20081;DHT22;10200;49.232;9.222;2022-08-07T07:50:53;29.70;36.40
20081;DHT22;10200;49.232;9.222;2022-08-07T07:53:21;29.50;37.00
20081;DHT22;10200;49.232;9.222;2022-08-07T07:55:52;29.50;37.50
20081;DHT22;10200;49.232;9.222;2022-08-07T07:58:20;29.50;36.50
20081;DHT22;10200;49.232;9.222;2022-08-07T08:00:48;29.50;37.00
20081;DHT22;10200;49.232;9.222;2022-08-07T08:03:15;29.30;37.30
20081;DHT22;10200;49.232;9.222;2022-08-07T08:05:43;29.40;37.20
20081;DHT22;10200;49.232;9.222;2022-08-07T08:08:10;29.20;36.60
20081;DHT22;10200;49.232;9.222;2022-08-07T08:10:36;29.10;37.00
20081;DHT22;10200;49.232;9.222;2022-08-07T08:13:03;29.10;37.40
20081;DHT22;10200;49.232;9.222;2022-08-07T08:15:34;29.30;36.80
20081;DHT22;10200;49.232;9.222;2022-08-07T08:18:01;29.20;36.50
20081;DHT22;10200;49.232;9.222;2022-08-07T08:20:30;29.20;36.40
20081;DHT22;10200;49.232;9.222;2022-08-07T08:22:58;29.30;36.80
20081;DHT22;10200;49.232;9.222;2022-08-07T08:25:43;29.50;36.40
20081;DHT22;10200;49.232;9.222;2022-08-07T08:28:29;29.70;36.50
20081;DHT22;10200;49.232;9.222;2022-08-07T08:30:57;30.40;36.10
20081;DHT22;10200;49.232;9.222;2022-08-07T08:33:30;30.80;34.50
20081;DHT22;10200;49.232;9.222;2022-08-07T08:35:57;30.70;34.00
20081;DHT22;10200;49.232;9.222;2022-08-07T08:38:27;30.60;34.10
20081;DHT22;10200;49.232;9.222;2022-08-07T08:49:15;31.20;33.80
20081;DHT22;10200;49.232;9.222;2022-08-07T08:52:10;31.50;33.80
20081;DHT22;10200;49.232;9.222;2022-08-07T08:54:46;31.80;32.40
20081;DHT22;10200;49.232;9.222;2022-08-07T08:57:26;32.40;31.80
20081;DHT22;10200;49.232;9.222;2022-08-07T09:00:00;32.30;31.70
20081;DHT22;10200;49.232;9.222;2022-08-07T09:05:39;32.70;31.10
20081;DHT22;10200;49.232;9.222;2022-08-07T09:11:18;33.00;30.00
20081;DHT22;10200;49.232;9.222;2022-08-07T09:14:13;32.90;29.70
20081;DHT22;10200;49.232;9.222;2022-08-07T09:17:06;32.60;29.50
20081;DHT22;10200;49.232;9.222;2022-08-07T09:19:45;32.30;30.10
20081;DHT22;10200;49.232;9.222;2022-08-07T09:25:30;32.40;30.40
20081;DHT22;10200;49.232;9.222;2022-08-07T09:31:02;32.70;29.90
20081;DHT22;10200;49.232;9.222;2022-08-07T09:36:37;32.90;29.90
20081;DHT22;10200;49.232;9.222;2022-08-07T09:53:18;33.30;29.30
20081;DHT22;10200;49.232;9.222;2022-08-07T10:06:57;32.90;28.00
20081;DHT22;10200;49.232;9.222;2022-08-07T10:10:02;32.70;28.30
20081;DHT22;10200;49.232;9.222;2022-08-07T10:35:07;32.00;28.20
20081;DHT22;10200;49.232;9.222;2022-08-07T10:40:33;31.50;28.70
20081;DHT22;10200;49.232;9.222;2022-08-07T10:43:22;31.70;29.10
20081;DHT22;10200;49.232;9.222;2022-08-07T10:45:54;32.00;29.10
20081;DHT22;10200;49.232;9.222;2022-08-07T10:48:40;32.10;28.50
20081;DHT22;10200;49.232;9.222;2022-08-07T10:51:14;32.10;28.20
20081;DHT22;10200;49.232;9.222;2022-08-07T10:54:07;32.00;28.20
20081;DHT22;10200;49.232;9.222;2022-08-07T10:59:46;31.40;28.20
20081;DHT22;10200;49.232;9.222;2022-08-07T11:10:35;30.90;29.30
20081;DHT22;10200;49.232;9.222;2022-08-07T11:15:38;30.80;29.10
20081;DHT22;10200;49.232;9.222;2022-08-07T11:18:07;30.90;29.40
20081;DHT22;10200;49.232;9.222;2022-08-07T11:26:40;31.10;28.80
20081;DHT22;10200;49.232;9.222;2022-08-07T11:34:41;31.10;27.50
20081;DHT22;10200;49.232;9.222;2022-08-07T11:51:34;31.30;28.50
20081;DHT22;10200;49.232;9.222;2022-08-07T12:07:31;30.70;28.50
20081;DHT22;10200;49.232;9.222;2022-08-07T12:10:03;30.60;28.60
20081;DHT22;10200;49.232;9.222;2022-08-07T12:12:37;30.70;29.10
20081;DHT22;10200;49.232;9.222;2022-08-07T12:15:14;30.80;28.80
20081;DHT22;10200;49.232;9.222;2022-08-07T12:17:48;30.90;28.60
20081;DHT22;10200;49.232;9.222;2022-08-07T12:20:26;30.90;28.60
20081;DHT22;10200;49.232;9.222;2022-08-07T12:23:10;30.90;28.60
20081;DHT22;10200;49.232;9.222;2022-08-07T12:25:45;30.80;28.40
20081;DHT22;10200;49.232;9.222;2022-08-07T12:30:59;30.70;28.60
20081;DHT22;10200;49.232;9.222;2022-08-07T12:33:28;31.00;28.60
20081;DHT22;10200;49.232;9.222;2022-08-07T12:35:57;31.10;28.40
20081;DHT22;10200;49.232;9.222;2022-08-07T12:38:23;31.20;28.20
20081;DHT22;10200;49.232;9.222;2022-08-07T12:40:51;31.20;28.10
20081;DHT22;10200;49.232;9.222;2022-08-07T12:43:21;31.30;28.40
20081;DHT22;10200;49.232;9.222;2022-08-07T12:51:18;31.20;27.50
20081;DHT22;10200;49.232;9.222;2022-08-07T12:54:30;31.20;27.50
20081;DHT22;10200;49.232;9.222;2022-08-07T12:56:35;31.30;27.90
20081;DHT22;10200;49.232;9.222;2022-08-07T12:59:04;31.40;27.70
20081;DHT22;10200;49.232;9.222;2022-08-07T13:13:19;31.50;27.60
20081;DHT22;10200;49.232;9.222;2022-08-07T13:15:59;31.50;27.30
20081;DHT22;10200;49.232;9.222;2022-08-07T13:18:49;31.70;27.40
20081;DHT22;10200;49.232;9.222;2022-08-07T13:21:21;31.80;27.20
20081;DHT22;10200;49.232;9.222;2022-08-07T13:24:07;31.90;27.30
20081;DHT22;10200;49.232;9.222;2022-08-07T13:29:54;32.00;27.20
20081;DHT22;10200;49.232;9.222;2022-08-07T13:35:13;32.00;27.30
20081;DHT22;10200;49.232;9.222;2022-08-07T13:41:01;31.80;27.70
20081;DHT22;10200;49.232;9.222;2022-08-07T13:43:29;31.70;27.30
20081;DHT22;10200;49.232;9.222;2022-08-07T13:46:00;31.50;27.00
20081;DHT22;10200;49.232;9.222;2022-08-07T13:48:31;31.40;27.30
20081;DHT22;10200;49.232;9.222;2022-08-07T13:50:58;31.30;27.30
20081;DHT22;10200;49.232;9.222;2022-08-07T13:53:32;31.20;27.40
20081;DHT22;10200;49.232;9.222;2022-08-07T13:56:02;31.10;27.60
20081;DHT22;10200;49.232;9.222;2022-08-07T13:58:29;31.00;27.60
20081;DHT22;10200;49.232;9.222;2022-08-07T14:01:21;31.00;27.50
20081;DHT22;10200;49.232;9.222;2022-08-07T14:03:48;31.00;27.80
20081;DHT22;10200;49.232;9.222;2022-08-07T14:06:14;31.20;27.40
20081;DHT22;10200;49.232;9.222;2022-08-07T14:08:46;31.10;27.10
20081;DHT22;10200;49.232;9.222;2022-08-07T14:11:16;31.10;27.20
20081;DHT22;10200;49.232;9.222;2022-08-07T14:13:42;31.10;27.50
20081;DHT22;10200;49.232;9.222;2022-08-07T14:16:13;31.20;27.50
20081;DHT22;10200;49.232;9.222;2022-08-07T14:18:47;31.10;27.30
20081;DHT22;10200;49.232;9.222;2022-08-07T14:21:22;31.00;27.70
20081;DHT22;10200;49.232;9.222;2022-08-07T14:23:55;31.00;27.30
20081;DHT22;10200;49.232;9.222;2022-08-07T14:26:26;31.00;27.40
20081;DHT22;10200;49.232;9.222;2022-08-07T14:28:53;31.00;27.50
20081;DHT22;10200;49.232;9.222;2022-08-07T14:31:22;31.10;27.70
20081;DHT22;10200;49.232;9.222;2022-08-07T14:33:51;31.20;27.80
20081;DHT22;10200;49.232;9.222;2022-08-07T14:36:18;31.30;27.90
20081;DHT22;10200;49.232;9.222;2022-08-07T14:38:45;31.40;27.50
20081;DHT22;10200;49.232;9.222;2022-08-07T14:41:21;31.60;27.60
20081;DHT22;10200;49.232;9.222;2022-08-07T14:43:51;31.60;27.10
20081;DHT22;10200;49.232;9.222;2022-08-07T14:46:18;31.60;27.20
20081;DHT22;10200;49.232;9.222;2022-08-07T14:48:46;31.50;27.40
20081;DHT22;10200;49.232;9.222;2022-08-07T14:51:19;31.30;27.40
20081;DHT22;10200;49.232;9.222;2022-08-07T14:53:46;31.20;27.20
20081;DHT22;10200;49.232;9.222;2022-08-07T14:56:18;31.10;27.70
20081;DHT22;10200;49.232;9.222;2022-08-07T14:58:48;31.10;27.50
20081;DHT22;10200;49.232;9.222;2022-08-07T15:01:15;31.10;27.70
20081;DHT22;10200;49.232;9.222;2022-08-07T15:03:42;31.20;27.90
20081;DHT22;10200;49.232;9.222;2022-08-07T15:06:11;31.10;27.80
20081;DHT22;10200;49.232;9.222;2022-08-07T15:08:42;31.10;27.60
20081;DHT22;10200;49.232;9.222;2022-08-07T15:11:13;31.10;27.50
20081;DHT22;10200;49.232;9.222;2022-08-07T15:13:55;31.10;27.70
20081;DHT22;10200;49.232;9.222;2022-08-07T15:16:37;31.20;27.80
20081;DHT22;10200;49.232;9.222;2022-08-07T15:19:12;31.10;27.70
20081;DHT22;10200;49.232;9.222;2022-08-07T15:21:48;31.00;27.60
20081;DHT22;10200;49.232;9.222;2022-08-07T15:24:29;30.90;27.50
20081;DHT22;10200;49.232;9.222;2022-08-07T15:27:06;30.90;28.10
20081;DHT22;10200;49.232;9.222;2022-08-07T15:29:36;30.80;27.60
20081;DHT22;10200;49.232;9.222;2022-08-07T15:32:04;30.80;28.00
20081;DHT22;10200;49.232;9.222;2022-08-07T15:34:44;30.80;27.70
20081;DHT22;10200;49.232;9.222;2022-08-07T15:37:10;30.70;27.90
20081;DHT22;10200;49.232;9.222;2022-08-07T15:39:38;30.70;27.80
20081;DHT22;10200;49.232;9.222;2022-08-07T15:42:06;30.80;27.90
20081;DHT22;10200;49.232;9.222;2022-08-07T15:44:49;30.80;27.60
20081;DHT22;10200;49.232;9.222;2022-08-07T15:47:17;30.80;27.80
20081;DHT22;10200;49.232;9.222;2022-08-07T15:49:47;30.70;27.80
20081;DHT22;10200;49.232;9.222;2022-08-07T15:52:18;30.60;28.30
20081;DHT22;10200;49.232;9.222;2022-08-07T15:54:47;30.60;27.70
20081;DHT22;10200;49.232;9.222;2022-08-07T15:57:20;30.60;28.20
20081;DHT22;10200;49.232;9.222;2022-08-07T15:59:49;30.70;28.10
20081;DHT22;10200;49.232;9.222;2022-08-07T16:02:24;30.80;28.30
20081;DHT22;10200;49.232;9.222;2022-08-07T16:04:55;30.90;28.50
20081;DHT22;10200;49.232;9.222;2022-08-07T16:07:26;30.90;27.90
20081;DHT22;10200;49.232;9.222;2022-08-07T16:10:15;30.90;28.30
20081;DHT22;10200;49.232;9.222;2022-08-07T16:17:42;30.90;28.20
20081;DHT22;10200;49.232;9.222;2022-08-07T16:20:41;30.80;28.00
20081;DHT22;10200;49.232;9.222;2022-08-07T16:23:43;30.80;28.40
20081;DHT22;10200;49.232;9.222;2022-08-07T16:34:05;30.60;27.90
20081;DHT22;10200;49.232;9.222;2022-08-07T16:53:52;30.30;28.90
20081;DHT22;10200;49.232;9.222;2022-08-07T16:56:54;30.30;28.60
20081;DHT22;10200;49.232;9.222;2022-08-07T17:05:14;30.10;28.80
20081;DHT22;10200;49.232;9.222;2022-08-07T17:08:01;30.10;28.70
20081;DHT22;10200;49.232;9.222;2022-08-07T17:10:50;30.00;28.60
20081;DHT22;10200;49.232;9.222;2022-08-07T17:27:27;29.80;29.20
20081;DHT22;10200;49.232;9.222;2022-08-07T17:30:05;29.70;29.10
20081;DHT22;10200;49.232;9.222;2022-08-07T17:33:13;29.60;29.20
20081;DHT22;10200;49.232;9.222;2022-08-07T17:38:12;29.50;29.70
20081;DHT22;10200;49.232;9.222;2022-08-07T17:43:30;29.40;30.00
20081;DHT22;10200;49.232;9.222;2022-08-07T17:46:34;29.30;29.50
20081;DHT22;10200;49.232;9.222;2022-08-07T17:49:13;29.20;29.60
20081;DHT22;10200;49.232;9.222;2022-08-07T17:51:55;29.10;29.70
20081;DHT22;10200;49.232;9.222;2022-08-07T17:56:58;29.00;30.60
20081;DHT22;10200;49.232;9.222;2022-08-07T17:59:34;29.00;30.40
20081;DHT22;10200;49.232;9.222;2022-08-07T18:02:10;28.90;30.30
20081;DHT22;10200;49.232;9.222;2022-08-07T18:04:47;28.90;30.60
20081;DHT22;10200;49.232;9.222;2022-08-07T18:07:45;28.90;30.70
20081;DHT22;10200;49.232;9.222;2022-08-07T18:10:18;28.80;30.70
20081;DHT22;10200;49.232;9.222;2022-08-07T18:13:03;28.70;31.20
20081;DHT22;10200;49.232;9.222;2022-08-07T18:16:04;28.60;31.20
20081;DHT22;10200;49.232;9.222;2022-08-07T18:19:06;28.60;31.40
20081;DHT22;10200;49.232;9.222;2022-08-07T18:21:38;28.50;31.30
20081;DHT22;10200;49.232;9.222;2022-08-07T18:27:11;28.30;31.80
20081;DHT22;10200;49.232;9.222;2022-08-07T18:29:51;28.30;32.30
20081;DHT22;10200;49.232;9.222;2022-08-07T18:32:42;28.10;32.10
20081;DHT22;10200;49.232;9.222;2022-08-07T18:35:25;28.10;32.60
20081;DHT22;10200;49.232;9.222;2022-08-07T18:41:12;27.90;33.20
20081;DHT22;10200;49.232;9.222;2022-08-07T18:49:35;27.70;33.70
20081;DHT22;10200;49.232;9.222;2022-08-07T19:01:10;27.30;34.30
20081;DHT22;10200;49.232;9.222;2022-08-07T19:03:49;27.20;34.70
20081;DHT22;10200;49.232;9.222;2022-08-07T19:06:19;27.10;35.20
20081;DHT22;10200;49.232;9.222;2022-08-07T19:14:22;26.90;35.00
20081;DHT22;10200;49.232;9.222;2022-08-07T19:16:56;26.80;35.30
20081;DHT22;10200;49.232;9.222;2022-08-07T19:19:46;26.70;35.70
20081;DHT22;10200;49.232;9.222;2022-08-07T19:22:27;26.60;35.90
20081;DHT22;10200;49.232;9.222;2022-08-07T19:24:58;26.50;36.20
20081;DHT22;10200;49.232;9.222;2022-08-07T19:27:29;26.40;36.40
20081;DHT22;10200;49.232;9.222;2022-08-07T19:29:59;26.20;36.60
20081;DHT22;10200;49.232;9.222;2022-08-07T19:32:26;26.10;37.00
20081;DHT22;10200;49.232;9.222;2022-08-07T19:34:58;26.00;37.30
20081;DHT22;10200;49.232;9.222;2022-08-07T19:37:26;26.00;37.40
20081;DHT22;10200;49.232;9.222;2022-08-07T19:39:58;25.80;37.70
20081;DHT22;10200;49.232;9.222;2022-08-07T19:42:30;25.70;37.90
20081;DHT22;10200;49.232;9.222;2022-08-07T19:45:02;25.50;38.10
20081;DHT22;10200;49.232;9.222;2022-08-07T19:47:29;25.30;38.70
20081;DHT22;10200;49.232;9.222;2022-08-07T19:49:55;25.30;38.80
20081;DHT22;10200;49.232;9.222;2022-08-07T19:52:25;25.30;38.70
20081;DHT22;10200;49.232;9.222;2022-08-07T19:54:52;25.20;38.50
20081;DHT22;10200;49.232;9.222;2022-08-07T19:57:24;25.10;38.80
20081;DHT22;10200;49.232;9.222;2022-08-07T19:59:58;25.10;38.80
20081;DHT22;10200;49.232;9.222;2022-08-07T20:02:42;25.00;38.90
20081;DHT22;10200;49.232;9.222;2022-08-07T20:05:13;24.90;39.30
20081;DHT22;10200;49.232;9.222;2022-08-07T20:07:42;24.80;39.70
20081;DHT22;10200;49.232;9.222;2022-08-07T20:10:09;24.80;39.80